Sks Mosel — LAXB5 — position and weather

sailwx.info

Track history (hours):
 
Tides and Currents Weather Stations Pressure Air Temp Water Temp Dewpoint Dewpoint Depression Visibility Wind Speed Wind Dir Waves Ship Positions

Sks Mosel

Last reported at 2018-Jun-15 02:55 UTC. Time now 2018-Jun-22 07:42 UTC.
Position N 36°37' E 023°32'.

Length 250 m; draft 9.3 m.

Type: Tanker. MMSI: 258792000.

Date/timePositionNaut miles runAvg speedWind from/ knotsBaromVisibWave heightAir tempDewpointWater temp
2018-Jun-15 02:55N 36°37' E 023°32'  
2018-Jun-10 15:30N 36°44' E 000°36'1010.7
2018-Jun-10 14:32N 36°41' E 000°24'210.8
2018-Jun-10 14:22N 36°41' E 000°22'25012.7
2018-Jun-09 18:35N 36°01' W 004°45'216.0
2018-Jun-09 18:29N 36°01' W 004°47'1515.2
2018-Jun-09 17:29N 36°05' W 005°05'613.4
2018-Jun-09 17:00N 36°09' W 005°12'3 5.2
2018-Jun-09 16:30N 36°09' W 005°15'1 1.1
2018-Jun-09 16:00N 36°09' W 005°16'1 0.9
2018-Jun-09 15:00N 36°08' W 005°17'1 1.1
2018-Jun-09 14:30N 36°08' W 005°17'1 1.4
2018-Jun-09 14:00N 36°07' W 005°17'1 1.5
2018-Jun-09 13:30N 36°07' W 005°17'1 1.8
2018-Jun-09 13:00N 36°06' W 005°18'1 2.1
2018-Jun-09 12:30N 36°05' W 005°19'3 5.6
2018-Jun-09 12:00N 36°02' W 005°20'714.0
2018-Jun-09 11:30N 35°58' W 005°26'  
2018-Jun-06 02:50N 48°55' W 005°44'9412.2
2018-Jun-05 19:06N 49°43' W 003°39'212.6
2018-Jun-05 18:56N 49°44' W 003°37'712.7
2018-Jun-05 18:23N 49°47' W 003°27'513.0
2018-Jun-05 18:00N 49°50' W 003°21'713.2
2018-Jun-05 17:30N 49°53' W 003°12'713.3
2018-Jun-05 16:59N 49°57' W 003°03'613.2
2018-Jun-05 16:30N 49°59' W 002°53'613.2
2018-Jun-05 16:01N 50°01' W 002°44'712.9
2018-Jun-05 15:28N 50°03' W 002°33'1811.9
2018-Jun-05 13:59N 50°08' W 002°07'1110.6
2018-Jun-05 12:55N 50°11' W 001°50'610.0
2018-Jun-05 12:21N 50°13' W 001°42'410.0
2018-Jun-05 11:59N 50°14' W 001°36'510.0
2018-Jun-05 11:31N 50°15' W 001°29'2811.0
2018-Jun-05 08:59N 50°23' W 000°47'711.4
2018-Jun-05 08:25N 50°24' W 000°37'1011.7
2018-Jun-05 07:35N 50°27' W 000°23'111.7
2018-Jun-05 07:30N 50°27' W 000°21'811.7
2018-Jun-05 06:52N 50°29' W 000°10'411.7
2018-Jun-05 06:30N 50°30' W 000°03'711.7
2018-Jun-05 05:52N 50°32' E 000°08'511.4
2018-Jun-05 05:24N 50°33' E 000°16'611.1
2018-Jun-05 04:49N 50°35' E 000°26'310.8
2018-Jun-05 04:30N 50°35' E 000°31'510.3
2018-Jun-05 04:00N 50°38' E 000°38'510.3
2018-Jun-05 03:30N 50°41' E 000°44'5 9.9
2018-Jun-05 03:00N 50°45' E 000°50'  
Track history (hours):
 
Tides and Currents Weather Stations Pressure Air Temp Water Temp Dewpoint Dewpoint Depression Visibility Wind Speed Wind Dir Waves Ship Positions

Sks Mosel

Last reported at 2018-Jun-15 02:55 UTC. Time now 2018-Jun-22 07:42 UTC.
Position N 36°37' E 023°32'.

Length 250 m; draft 9.3 m.

Type: Tanker. MMSI: 258792000.

Date/timePositionNaut miles runAvg speedWind from/ knotsBaromVisibWave heightAir tempDewpointWater temp
2018-Jun-15 02:55N 36°37' E 023°32'  
2018-Jun-10 15:30N 36°44' E 000°36'1010.7
2018-Jun-10 14:32N 36°41' E 000°24'210.8
2018-Jun-10 14:22N 36°41' E 000°22'25012.7
2018-Jun-09 18:35N 36°01' W 004°45'216.0
2018-Jun-09 18:29N 36°01' W 004°47'1515.2
2018-Jun-09 17:29N 36°05' W 005°05'613.4
2018-Jun-09 17:00N 36°09' W 005°12'3 5.2
2018-Jun-09 16:30N 36°09' W 005°15'1 1.1
2018-Jun-09 16:00N 36°09' W 005°16'1 0.9
2018-Jun-09 15:00N 36°08' W 005°17'1 1.1
2018-Jun-09 14:30N 36°08' W 005°17'1 1.4
2018-Jun-09 14:00N 36°07' W 005°17'1 1.5
2018-Jun-09 13:30N 36°07' W 005°17'1 1.8
2018-Jun-09 13:00N 36°06' W 005°18'1 2.1
2018-Jun-09 12:30N 36°05' W 005°19'3 5.6
2018-Jun-09 12:00N 36°02' W 005°20'714.0
2018-Jun-09 11:30N 35°58' W 005°26'  
2018-Jun-06 02:50N 48°55' W 005°44'9412.2
2018-Jun-05 19:06N 49°43' W 003°39'212.6
2018-Jun-05 18:56N 49°44' W 003°37'712.7
2018-Jun-05 18:23N 49°47' W 003°27'513.0
2018-Jun-05 18:00N 49°50' W 003°21'713.2
2018-Jun-05 17:30N 49°53' W 003°12'713.3
2018-Jun-05 16:59N 49°57' W 003°03'613.2
2018-Jun-05 16:30N 49°59' W 002°53'613.2
2018-Jun-05 16:01N 50°01' W 002°44'712.9
2018-Jun-05 15:28N 50°03' W 002°33'1811.9
2018-Jun-05 13:59N 50°08' W 002°07'1110.6
2018-Jun-05 12:55N 50°11' W 001°50'610.0
2018-Jun-05 12:21N 50°13' W 001°42'410.0
2018-Jun-05 11:59N 50°14' W 001°36'510.0
2018-Jun-05 11:31N 50°15' W 001°29'2811.0
2018-Jun-05 08:59N 50°23' W 000°47'711.4
2018-Jun-05 08:25N 50°24' W 000°37'1011.7
2018-Jun-05 07:35N 50°27' W 000°23'111.7
2018-Jun-05 07:30N 50°27' W 000°21'811.7
2018-Jun-05 06:52N 50°29' W 000°10'411.7
2018-Jun-05 06:30N 50°30' W 000°03'711.7
2018-Jun-05 05:52N 50°32' E 000°08'511.4
2018-Jun-05 05:24N 50°33' E 000°16'611.1
2018-Jun-05 04:49N 50°35' E 000°26'310.8
2018-Jun-05 04:30N 50°35' E 000°31'510.3
2018-Jun-05 04:00N 50°38' E 000°38'510.3
2018-Jun-05 03:30N 50°41' E 000°44'5 9.9
2018-Jun-05 03:00N 50°45' E 000°50'  

Dump ship's entire track history